sensor_id;sensor_type;location;lat;lon;timestamp;pressure;altitude;pressure_sealevel;temperature;humidity
44979;BME280;67464;52.438;-1.904;2023-03-22T00:01:27;98413.98;;;5.87;100.00
44979;BME280;67464;52.438;-1.904;2023-03-22T00:03:53;98409.66;;;6.23;100.00
44979;BME280;67464;52.438;-1.904;2023-03-22T00:06:19;98408.26;;;5.63;100.00
44979;BME280;67464;52.438;-1.904;2023-03-22T00:08:47;98388.40;;;6.08;100.00
44979;BME280;67464;52.438;-1.904;2023-03-22T00:11:11;98389.26;;;5.75;100.00
44979;BME280;67464;52.438;-1.904;2023-03-22T00:13:35;98387.21;;;6.28;100.00
44979;BME280;67464;52.438;-1.904;2023-03-22T00:16:00;98381.90;;;5.54;100.00
44979;BME280;67464;52.438;-1.904;2023-03-22T00:18:26;98364.42;;;5.98;100.00
44979;BME280;67464;52.438;-1.904;2023-03-22T00:20:53;98367.02;;;5.85;100.00
44979;BME280;67464;52.438;-1.904;2023-03-22T00:23:17;98362.60;;;6.11;100.00
44979;BME280;67464;52.438;-1.904;2023-03-22T00:25:43;98343.98;;;5.82;100.00
44979;BME280;67464;52.438;-1.904;2023-03-22T00:28:08;98344.73;;;5.98;100.00
44979;BME280;67464;52.438;-1.904;2023-03-22T00:30:34;98353.39;;;5.58;100.00
44979;BME280;67464;52.438;-1.904;2023-03-22T00:32:59;98342.76;;;6.27;100.00
44979;BME280;67464;52.438;-1.904;2023-03-22T00:35:25;98326.50;;;5.94;100.00
44979;BME280;67464;52.438;-1.904;2023-03-22T00:37:50;98319.75;;;5.94;100.00
44979;BME280;67464;52.438;-1.904;2023-03-22T00:40:16;98314.61;;;5.71;100.00
44979;BME280;67464;52.438;-1.904;2023-03-22T00:42:41;98328.38;;;5.82;100.00
44979;BME280;67464;52.438;-1.904;2023-03-22T00:45:10;98325.83;;;6.18;100.00
44979;BME280;67464;52.438;-1.904;2023-03-22T00:47:33;98320.13;;;6.10;100.00
44979;BME280;67464;52.438;-1.904;2023-03-22T00:49:58;98308.04;;;6.01;100.00
44979;BME280;67464;52.438;-1.904;2023-03-22T00:52:24;98305.75;;;5.77;100.00
44979;BME280;67464;52.438;-1.904;2023-03-22T00:54:49;98316.02;;;6.38;100.00
44979;BME280;67464;52.438;-1.904;2023-03-22T00:57:15;98298.95;;;6.47;100.00
44979;BME280;67464;52.438;-1.904;2023-03-22T00:59:41;98296.56;;;6.32;100.00
44979;BME280;67464;52.438;-1.904;2023-03-22T01:02:06;98295.10;;;5.94;100.00
44979;BME280;67464;52.438;-1.904;2023-03-22T01:04:32;98294.21;;;6.34;100.00
44979;BME280;67464;52.438;-1.904;2023-03-22T01:06:57;98283.28;;;5.57;100.00
44979;BME280;67464;52.438;-1.904;2023-03-22T01:09:23;98282.80;;;6.06;100.00
44979;BME280;67464;52.438;-1.904;2023-03-22T01:11:48;98265.65;;;6.09;100.00
44979;BME280;67464;52.438;-1.904;2023-03-22T01:14:14;98266.48;;;5.76;100.00
44979;BME280;67464;52.438;-1.904;2023-03-22T01:16:40;98259.34;;;6.37;100.00
44979;BME280;67464;52.438;-1.904;2023-03-22T01:19:05;98259.50;;;6.23;100.00
44979;BME280;67464;52.438;-1.904;2023-03-22T01:21:31;98264.23;;;6.23;100.00
44979;BME280;67464;52.438;-1.904;2023-03-22T01:23:56;98241.97;;;6.01;100.00
44979;BME280;67464;52.438;-1.904;2023-03-22T01:26:22;98259.86;;;6.28;100.00
44979;BME280;67464;52.438;-1.904;2023-03-22T01:28:48;98244.83;;;6.41;100.00
44979;BME280;67464;52.438;-1.904;2023-03-22T01:31:13;98240.81;;;6.13;100.00
44979;BME280;67464;52.438;-1.904;2023-03-22T01:33:39;98247.10;;;6.20;100.00
44979;BME280;67464;52.438;-1.904;2023-03-22T01:36:06;98243.41;;;5.93;100.00
44979;BME280;67464;52.438;-1.904;2023-03-22T01:38:30;98220.35;;;6.27;100.00
44979;BME280;67464;52.438;-1.904;2023-03-22T01:40:56;98208.63;;;6.08;100.00
44979;BME280;67464;52.438;-1.904;2023-03-22T01:43:21;98211.65;;;5.90;100.00
44979;BME280;67464;52.438;-1.904;2023-03-22T01:45:47;98220.31;;;6.12;100.00
44979;BME280;67464;52.438;-1.904;2023-03-22T01:48:16;98198.71;;;5.84;100.00
44979;BME280;67464;52.438;-1.904;2023-03-22T01:50:40;98200.23;;;5.81;100.00
44979;BME280;67464;52.438;-1.904;2023-03-22T01:53:04;98200.11;;;6.16;100.00
44979;BME280;67464;52.438;-1.904;2023-03-22T01:55:29;98185.53;;;5.87;100.00
44979;BME280;67464;52.438;-1.904;2023-03-22T01:57:55;98184.04;;;5.86;100.00
44979;BME280;67464;52.438;-1.904;2023-03-22T02:00:20;98176.78;;;6.05;100.00
44979;BME280;67464;52.438;-1.904;2023-03-22T02:02:49;98171.71;;;6.19;100.00
44979;BME280;67464;52.438;-1.904;2023-03-22T02:05:12;98178.79;;;6.05;100.00
44979;BME280;67464;52.438;-1.904;2023-03-22T02:07:39;98183.19;;;5.89;100.00
44979;BME280;67464;52.438;-1.904;2023-03-22T02:10:06;98188.41;;;6.16;100.00
44979;BME280;67464;52.438;-1.904;2023-03-22T02:12:33;98174.72;;;5.67;100.00
44979;BME280;67464;52.438;-1.904;2023-03-22T02:15:02;98178.34;;;5.93;100.00
44979;BME280;67464;52.438;-1.904;2023-03-22T02:17:28;98177.65;;;5.98;100.00
44979;BME280;67464;52.438;-1.904;2023-03-22T02:20:11;98168.56;;;5.69;100.00
44979;BME280;67464;52.438;-1.904;2023-03-22T02:22:28;98162.66;;;6.18;100.00
44979;BME280;67464;52.438;-1.904;2023-03-22T02:27:14;98158.98;;;5.86;100.00
44979;BME280;67464;52.438;-1.904;2023-03-22T02:29:35;98162.78;;;5.87;100.00
44979;BME280;67464;52.438;-1.904;2023-03-22T02:34:35;98143.65;;;5.96;100.00
44979;BME280;67464;52.438;-1.904;2023-03-22T02:39:20;98149.47;;;5.73;100.00
44979;BME280;67464;52.438;-1.904;2023-03-22T02:41:45;98145.96;;;5.55;100.00
44979;BME280;67464;52.438;-1.904;2023-03-22T02:44:07;98150.23;;;5.83;100.00
44979;BME280;67464;52.438;-1.904;2023-03-22T02:46:31;98145.69;;;6.11;100.00
44979;BME280;67464;52.438;-1.904;2023-03-22T02:49:00;98151.12;;;5.57;100.00
44979;BME280;67464;52.438;-1.904;2023-03-22T02:51:21;98141.60;;;6.33;100.00
44979;BME280;67464;52.438;-1.904;2023-03-22T02:53:48;98141.08;;;6.03;100.00
44979;BME280;67464;52.438;-1.904;2023-03-22T02:56:12;98158.07;;;5.82;100.00
44979;BME280;67464;52.438;-1.904;2023-03-22T02:58:37;98154.04;;;6.08;100.00
44979;BME280;67464;52.438;-1.904;2023-03-22T03:01:05;98155.34;;;5.77;100.00
44979;BME280;67464;52.438;-1.904;2023-03-22T03:03:28;98158.00;;;5.68;100.00
44979;BME280;67464;52.438;-1.904;2023-03-22T03:05:55;98144.84;;;5.76;100.00
44979;BME280;67464;52.438;-1.904;2023-03-22T03:08:19;98139.75;;;6.00;100.00
44979;BME280;67464;52.438;-1.904;2023-03-22T03:10:44;98132.92;;;6.04;100.00
44979;BME280;67464;52.438;-1.904;2023-03-22T03:13:11;98133.64;;;5.84;100.00
44979;BME280;67464;52.438;-1.904;2023-03-22T03:15:34;98129.39;;;5.88;100.00
44979;BME280;67464;52.438;-1.904;2023-03-22T03:18:10;98123.39;;;5.65;100.00
44979;BME280;67464;52.438;-1.904;2023-03-22T03:20:31;98137.71;;;5.86;100.00
44979;BME280;67464;52.438;-1.904;2023-03-22T03:23:00;98116.32;;;5.91;100.00
44979;BME280;67464;52.438;-1.904;2023-03-22T03:25:22;98121.04;;;5.30;100.00
44979;BME280;67464;52.438;-1.904;2023-03-22T03:27:46;98109.11;;;5.97;100.00
44979;BME280;67464;52.438;-1.904;2023-03-22T03:30:12;98094.72;;;6.01;100.00
44979;BME280;67464;52.438;-1.904;2023-03-22T03:32:38;98083.11;;;5.60;100.00
44979;BME280;67464;52.438;-1.904;2023-03-22T03:35:04;98089.99;;;5.71;100.00
44979;BME280;67464;52.438;-1.904;2023-03-22T03:37:29;98070.27;;;6.11;100.00
44979;BME280;67464;52.438;-1.904;2023-03-22T03:39:54;98066.79;;;5.67;100.00
44979;BME280;67464;52.438;-1.904;2023-03-22T03:42:17;98063.21;;;5.89;100.00
44979;BME280;67464;52.438;-1.904;2023-03-22T03:44:42;98071.18;;;6.08;100.00
44979;BME280;67464;52.438;-1.904;2023-03-22T03:47:08;98039.15;;;6.37;100.00
44979;BME280;67464;52.438;-1.904;2023-03-22T03:49:34;98036.15;;;6.04;100.00
44979;BME280;67464;52.438;-1.904;2023-03-22T03:51:59;98051.12;;;6.08;100.00
44979;BME280;67464;52.438;-1.904;2023-03-22T03:54:24;98050.32;;;6.11;100.00
44979;BME280;67464;52.438;-1.904;2023-03-22T03:56:49;98063.32;;;6.10;100.00
44979;BME280;67464;52.438;-1.904;2023-03-22T03:59:15;98060.06;;;6.04;100.00
44979;BME280;67464;52.438;-1.904;2023-03-22T04:01:41;98055.27;;;6.10;100.00
44979;BME280;67464;52.438;-1.904;2023-03-22T04:04:06;98064.00;;;5.58;100.00
44979;BME280;67464;52.438;-1.904;2023-03-22T04:06:32;98060.84;;;6.30;100.00
44979;BME280;67464;52.438;-1.904;2023-03-22T04:08:58;98081.28;;;5.77;100.00
44979;BME280;67464;52.438;-1.904;2023-03-22T04:11:23;98079.75;;;6.12;100.00
44979;BME280;67464;52.438;-1.904;2023-03-22T04:13:49;98079.82;;;6.36;100.00
44979;BME280;67464;52.438;-1.904;2023-03-22T04:16:15;98074.00;;;5.96;100.00
44979;BME280;67464;52.438;-1.904;2023-03-22T04:18:40;98082.74;;;5.76;100.00
44979;BME280;67464;52.438;-1.904;2023-03-22T04:21:06;98076.93;;;6.10;100.00
44979;BME280;67464;52.438;-1.904;2023-03-22T04:23:32;98081.62;;;6.00;100.00
44979;BME280;67464;52.438;-1.904;2023-03-22T04:25:57;98079.47;;;6.22;100.00
44979;BME280;67464;52.438;-1.904;2023-03-22T04:28:23;98090.67;;;5.77;100.00
44979;BME280;67464;52.438;-1.904;2023-03-22T04:30:49;98094.30;;;6.02;100.00
44979;BME280;67464;52.438;-1.904;2023-03-22T04:33:15;98099.27;;;5.79;100.00
44979;BME280;67464;52.438;-1.904;2023-03-22T04:35:40;98110.24;;;5.76;100.00
44979;BME280;67464;52.438;-1.904;2023-03-22T04:38:06;98099.80;;;6.38;100.00
44979;BME280;67464;52.438;-1.904;2023-03-22T04:40:32;98100.89;;;6.64;100.00
44979;BME280;67464;52.438;-1.904;2023-03-22T04:42:57;98095.91;;;6.06;100.00
44979;BME280;67464;52.438;-1.904;2023-03-22T04:45:23;98096.77;;;5.78;100.00
44979;BME280;67464;52.438;-1.904;2023-03-22T04:47:49;98110.14;;;6.19;100.00
44979;BME280;67464;52.438;-1.904;2023-03-22T04:50:14;98104.08;;;6.44;100.00
44979;BME280;67464;52.438;-1.904;2023-03-22T04:52:40;98107.85;;;6.83;100.00
44979;BME280;67464;52.438;-1.904;2023-03-22T04:55:06;98118.87;;;6.01;100.00
44979;BME280;67464;52.438;-1.904;2023-03-22T04:57:31;98123.04;;;6.59;100.00
44979;BME280;67464;52.438;-1.904;2023-03-22T04:59:57;98134.73;;;6.15;100.00
44979;BME280;67464;52.438;-1.904;2023-03-22T05:02:23;98138.49;;;6.74;100.00
44979;BME280;67464;52.438;-1.904;2023-03-22T05:04:48;98147.30;;;6.48;100.00
44979;BME280;67464;52.438;-1.904;2023-03-22T05:07:14;98131.78;;;6.56;100.00
44979;BME280;67464;52.438;-1.904;2023-03-22T05:09:40;98123.96;;;6.64;100.00
44979;BME280;67464;52.438;-1.904;2023-03-22T05:12:06;98132.68;;;6.36;100.00
44979;BME280;67464;52.438;-1.904;2023-03-22T05:14:31;98141.27;;;6.76;100.00
44979;BME280;67464;52.438;-1.904;2023-03-22T05:16:56;98163.75;;;6.63;100.00
44979;BME280;67464;52.438;-1.904;2023-03-22T05:19:22;98159.50;;;7.08;100.00
44979;BME280;67464;52.438;-1.904;2023-03-22T05:21:48;98168.15;;;6.14;100.00
44979;BME280;67464;52.438;-1.904;2023-03-22T05:24:13;98163.70;;;6.19;100.00
44979;BME280;67464;52.438;-1.904;2023-03-22T05:26:39;98166.70;;;6.27;100.00
44979;BME280;67464;52.438;-1.904;2023-03-22T05:29:04;98179.61;;;6.20;100.00
44979;BME280;67464;52.438;-1.904;2023-03-22T05:31:30;98172.02;;;6.66;100.00
44979;BME280;67464;52.438;-1.904;2023-03-22T05:33:56;98166.04;;;6.54;100.00
44979;BME280;67464;52.438;-1.904;2023-03-22T05:36:22;98174.09;;;6.37;100.00
44979;BME280;67464;52.438;-1.904;2023-03-22T05:38:47;98169.96;;;6.86;100.00
44979;BME280;67464;52.438;-1.904;2023-03-22T05:41:13;98181.59;;;6.60;100.00
44979;BME280;67464;52.438;-1.904;2023-03-22T05:43:40;98183.58;;;6.40;100.00
44979;BME280;67464;52.438;-1.904;2023-03-22T05:46:05;98181.23;;;6.49;100.00
44979;BME280;67464;52.438;-1.904;2023-03-22T05:48:30;98177.81;;;6.93;100.00
44979;BME280;67464;52.438;-1.904;2023-03-22T05:50:56;98186.73;;;6.84;100.00
44979;BME280;67464;52.438;-1.904;2023-03-22T05:53:21;98181.48;;;7.04;100.00
44979;BME280;67464;52.438;-1.904;2023-03-22T05:55:47;98181.19;;;7.16;100.00
44979;BME280;67464;52.438;-1.904;2023-03-22T05:58:13;98184.43;;;7.24;100.00
44979;BME280;67464;52.438;-1.904;2023-03-22T06:00:38;98191.12;;;6.84;100.00
44979;BME280;67464;52.438;-1.904;2023-03-22T06:03:04;98196.51;;;6.64;100.00
44979;BME280;67464;52.438;-1.904;2023-03-22T06:05:30;98191.09;;;6.52;100.00
44979;BME280;67464;52.438;-1.904;2023-03-22T06:07:55;98198.18;;;5.96;100.00
44979;BME280;67464;52.438;-1.904;2023-03-22T06:10:21;98198.81;;;6.48;100.00
44979;BME280;67464;52.438;-1.904;2023-03-22T06:12:46;98203.13;;;6.59;100.00
44979;BME280;67464;52.438;-1.904;2023-03-22T06:15:12;98200.01;;;6.24;100.00
44979;BME280;67464;52.438;-1.904;2023-03-22T06:17:37;98206.91;;;6.41;100.00
44979;BME280;67464;52.438;-1.904;2023-03-22T06:20:03;98216.40;;;5.96;100.00
44979;BME280;67464;52.438;-1.904;2023-03-22T06:22:28;98212.84;;;6.01;100.00
44979;BME280;67464;52.438;-1.904;2023-03-22T06:24:54;98223.09;;;6.39;100.00
44979;BME280;67464;52.438;-1.904;2023-03-22T06:27:19;98223.79;;;6.42;100.00
44979;BME280;67464;52.438;-1.904;2023-03-22T06:29:45;98225.83;;;6.14;100.00
44979;BME280;67464;52.438;-1.904;2023-03-22T06:32:10;98231.65;;;5.65;100.00
44979;BME280;67464;52.438;-1.904;2023-03-22T06:34:35;98242.86;;;6.33;100.00
44979;BME280;67464;52.438;-1.904;2023-03-22T06:37:01;98241.93;;;5.54;100.00
44979;BME280;67464;52.438;-1.904;2023-03-22T06:39:27;98234.33;;;5.28;100.00
44979;BME280;67464;52.438;-1.904;2023-03-22T06:41:51;98237.44;;;5.81;100.00
44979;BME280;67464;52.438;-1.904;2023-03-22T06:44:17;98235.65;;;7.00;100.00
44979;BME280;67464;52.438;-1.904;2023-03-22T06:46:43;98233.74;;;7.28;100.00
44979;BME280;67464;52.438;-1.904;2023-03-22T06:49:08;98247.59;;;6.92;100.00
44979;BME280;67464;52.438;-1.904;2023-03-22T06:51:34;98253.45;;;6.96;100.00
44979;BME280;67464;52.438;-1.904;2023-03-22T06:53:59;98254.68;;;6.50;100.00
44979;BME280;67464;52.438;-1.904;2023-03-22T06:56:25;98264.57;;;6.77;100.00
44979;BME280;67464;52.438;-1.904;2023-03-22T06:58:50;98262.45;;;6.39;100.00
44979;BME280;67464;52.438;-1.904;2023-03-22T07:01:16;98274.90;;;6.51;100.00
44979;BME280;67464;52.438;-1.904;2023-03-22T07:03:41;98281.08;;;6.58;100.00
44979;BME280;67464;52.438;-1.904;2023-03-22T07:06:08;98285.85;;;6.75;100.00
44979;BME280;67464;52.438;-1.904;2023-03-22T07:08:32;98293.18;;;6.36;100.00
44979;BME280;67464;52.438;-1.904;2023-03-22T07:10:58;98299.77;;;6.31;100.00
44979;BME280;67464;52.438;-1.904;2023-03-22T07:13:24;98300.54;;;6.21;100.00
44979;BME280;67464;52.438;-1.904;2023-03-22T07:15:52;98311.45;;;6.45;100.00
44979;BME280;67464;52.438;-1.904;2023-03-22T07:18:14;98317.50;;;6.97;100.00
44979;BME280;67464;52.438;-1.904;2023-03-22T07:20:40;98307.02;;;7.80;100.00
44979;BME280;67464;52.438;-1.904;2023-03-22T07:23:06;98313.30;;;7.35;100.00
44979;BME280;67464;52.438;-1.904;2023-03-22T07:25:31;98322.31;;;7.61;100.00
44979;BME280;67464;52.438;-1.904;2023-03-22T07:27:58;98318.87;;;7.32;100.00
44979;BME280;67464;52.438;-1.904;2023-03-22T07:30:23;98316.11;;;6.97;98.74
44979;BME280;67464;52.438;-1.904;2023-03-22T07:32:48;98317.85;;;7.84;100.00
44979;BME280;67464;52.438;-1.904;2023-03-22T07:35:14;98319.44;;;8.05;98.30
44979;BME280;67464;52.438;-1.904;2023-03-22T07:37:39;98314.51;;;7.13;100.00
44979;BME280;67464;52.438;-1.904;2023-03-22T07:40:05;98308.56;;;7.99;98.02
44979;BME280;67464;52.438;-1.904;2023-03-22T07:42:29;98313.09;;;7.43;94.76
44979;BME280;67464;52.438;-1.904;2023-03-22T07:44:54;98306.81;;;7.27;99.21
44979;BME280;67464;52.438;-1.904;2023-03-22T07:47:20;98307.17;;;7.82;93.95
44979;BME280;67464;52.438;-1.904;2023-03-22T07:49:46;98307.88;;;8.23;88.70
44979;BME280;67464;52.438;-1.904;2023-03-22T07:52:11;98307.07;;;7.23;96.96
44979;BME280;67464;52.438;-1.904;2023-03-22T07:54:37;98315.88;;;7.54;97.31
44979;BME280;67464;52.438;-1.904;2023-03-22T07:57:02;98313.84;;;7.88;99.72
44979;BME280;67464;52.438;-1.904;2023-03-22T07:59:28;98312.53;;;7.61;95.04
44979;BME280;67464;52.438;-1.904;2023-03-22T08:01:53;98313.51;;;7.76;93.26
44979;BME280;67464;52.438;-1.904;2023-03-22T08:04:18;98311.89;;;8.81;89.76
44979;BME280;67464;52.438;-1.904;2023-03-22T08:06:43;98320.20;;;8.58;90.46
44979;BME280;67464;52.438;-1.904;2023-03-22T08:09:08;98315.32;;;9.15;83.83
44979;BME280;67464;52.438;-1.904;2023-03-22T08:11:34;98312.80;;;9.46;77.84
44979;BME280;67464;52.438;-1.904;2023-03-22T08:13:58;98309.89;;;11.48;69.76
44979;BME280;67464;52.438;-1.904;2023-03-22T08:16:24;98309.24;;;13.89;56.63
44979;BME280;67464;52.438;-1.904;2023-03-22T08:18:49;98317.64;;;12.17;58.56
44979;BME280;67464;52.438;-1.904;2023-03-22T08:21:14;98319.34;;;14.50;50.84
44979;BME280;67464;52.438;-1.904;2023-03-22T08:23:40;98317.89;;;16.67;47.67
44979;BME280;67464;52.438;-1.904;2023-03-22T08:26:05;98318.77;;;12.22;53.86
44979;BME280;67464;52.438;-1.904;2023-03-22T08:28:30;98320.62;;;12.80;55.30
44979;BME280;67464;52.438;-1.904;2023-03-22T08:30:55;98317.06;;;14.52;51.94
44979;BME280;67464;52.438;-1.904;2023-03-22T08:33:21;98313.55;;;16.30;46.71
44979;BME280;67464;52.438;-1.904;2023-03-22T08:35:46;98319.04;;;12.93;50.22
44979;BME280;67464;52.438;-1.904;2023-03-22T08:38:12;98324.52;;;14.90;48.88
44979;BME280;67464;52.438;-1.904;2023-03-22T08:40:37;98325.26;;;15.22;46.58
44979;BME280;67464;52.438;-1.904;2023-03-22T08:43:02;98320.81;;;17.13;43.50
44979;BME280;67464;52.438;-1.904;2023-03-22T08:45:28;98317.26;;;18.72;39.68
44979;BME280;67464;52.438;-1.904;2023-03-22T08:47:54;98313.31;;;17.64;40.81
44979;BME280;67464;52.438;-1.904;2023-03-22T08:50:19;98316.07;;;13.41;47.20
44979;BME280;67464;52.438;-1.904;2023-03-22T08:52:45;98315.08;;;15.69;45.06
44979;BME280;67464;52.438;-1.904;2023-03-22T08:55:10;98318.40;;;17.68;41.92
44979;BME280;67464;52.438;-1.904;2023-03-22T08:57:36;98325.48;;;16.73;39.74
44979;BME280;67464;52.438;-1.904;2023-03-22T09:00:01;98323.64;;;16.53;41.07
44979;BME280;67464;52.438;-1.904;2023-03-22T09:02:27;98336.25;;;15.56;42.82
44979;BME280;67464;52.438;-1.904;2023-03-22T09:04:51;98324.42;;;15.44;44.06
44979;BME280;67464;52.438;-1.904;2023-03-22T09:07:16;98329.79;;;14.25;44.73
44979;BME280;67464;52.438;-1.904;2023-03-22T09:09:42;98318.13;;;15.22;44.06
44979;BME280;67464;52.438;-1.904;2023-03-22T09:12:08;98327.55;;;14.22;46.75
44979;BME280;67464;52.438;-1.904;2023-03-22T09:14:33;98331.48;;;13.31;45.62
44979;BME280;67464;52.438;-1.904;2023-03-22T09:16:59;98323.45;;;15.05;43.27
44979;BME280;67464;52.438;-1.904;2023-03-22T09:19:25;98311.06;;;16.97;40.51
44979;BME280;67464;52.438;-1.904;2023-03-22T09:21:51;98313.86;;;15.57;40.39
44979;BME280;67464;52.438;-1.904;2023-03-22T09:24:16;98312.55;;;15.91;40.56
44979;BME280;67464;52.438;-1.904;2023-03-22T09:26:41;98305.09;;;16.52;38.76
44979;BME280;67464;52.438;-1.904;2023-03-22T09:29:06;98307.02;;;17.72;36.76
44979;BME280;67464;52.438;-1.904;2023-03-22T09:31:31;98317.60;;;14.69;40.17
44979;BME280;67464;52.438;-1.904;2023-03-22T09:33:57;98313.61;;;12.71;44.96
44979;BME280;67464;52.438;-1.904;2023-03-22T09:36:22;98317.43;;;15.30;42.16
44979;BME280;67464;52.438;-1.904;2023-03-22T09:38:48;98315.11;;;15.11;39.31
44979;BME280;67464;52.438;-1.904;2023-03-22T09:41:15;98312.05;;;14.89;40.57
44979;BME280;67464;52.438;-1.904;2023-03-22T09:43:41;98310.10;;;15.50;39.32
44979;BME280;67464;52.438;-1.904;2023-03-22T09:46:06;98303.36;;;15.82;39.13
44979;BME280;67464;52.438;-1.904;2023-03-22T09:48:31;98297.62;;;16.80;37.16
44979;BME280;67464;52.438;-1.904;2023-03-22T09:50:55;98293.15;;;17.58;36.41
44979;BME280;67464;52.438;-1.904;2023-03-22T09:53:23;98294.79;;;17.57;35.60
44979;BME280;67464;52.438;-1.904;2023-03-22T09:55:49;98290.53;;;16.79;34.98
44979;BME280;67464;52.438;-1.904;2023-03-22T09:58:18;98288.41;;;18.49;34.76
44979;BME280;67464;52.438;-1.904;2023-03-22T10:00:39;98298.73;;;19.53;32.06
44979;BME280;67464;52.438;-1.904;2023-03-22T10:03:10;98305.17;;;15.91;36.81
44979;BME280;67464;52.438;-1.904;2023-03-22T10:05:30;98309.59;;;16.89;37.09
44979;BME280;67464;52.438;-1.904;2023-03-22T10:08:07;98300.76;;;17.11;35.46
44979;BME280;67464;52.438;-1.904;2023-03-22T10:10:19;98303.08;;;15.79;36.16
44979;BME280;67464;52.438;-1.904;2023-03-22T10:12:49;98304.45;;;17.30;34.41
44979;BME280;67464;52.438;-1.904;2023-03-22T10:15:13;98308.99;;;18.56;35.05
44979;BME280;67464;52.438;-1.904;2023-03-22T10:17:35;98305.26;;;18.37;36.25
44979;BME280;67464;52.438;-1.904;2023-03-22T10:20:02;98304.34;;;18.17;35.29
44979;BME280;67464;52.438;-1.904;2023-03-22T10:22:28;98305.75;;;16.76;34.37
44979;BME280;67464;52.438;-1.904;2023-03-22T10:24:51;98312.86;;;15.82;36.00
44979;BME280;67464;52.438;-1.904;2023-03-22T10:27:18;98310.64;;;16.27;37.48
44979;BME280;67464;52.438;-1.904;2023-03-22T10:29:43;98304.43;;;16.59;34.83
44979;BME280;67464;52.438;-1.904;2023-03-22T10:32:13;98306.97;;;17.32;35.43
44979;BME280;67464;52.438;-1.904;2023-03-22T10:34:32;98302.70;;;18.17;35.50
44979;BME280;67464;52.438;-1.904;2023-03-22T10:36:58;98317.37;;;17.60;35.29
44979;BME280;67464;52.438;-1.904;2023-03-22T10:39:27;98310.58;;;16.84;38.21
44979;BME280;67464;52.438;-1.904;2023-03-22T10:41:48;98304.83;;;16.97;35.92
44979;BME280;67464;52.438;-1.904;2023-03-22T10:44:16;98310.11;;;15.41;37.86
44979;BME280;67464;52.438;-1.904;2023-03-22T10:46:38;98297.50;;;16.18;36.97
44979;BME280;67464;52.438;-1.904;2023-03-22T10:49:04;98299.59;;;16.53;37.61
44979;BME280;67464;52.438;-1.904;2023-03-22T10:51:31;98297.32;;;14.90;37.33
44979;BME280;67464;52.438;-1.904;2023-03-22T10:53:54;98302.03;;;15.19;41.20
44979;BME280;67464;52.438;-1.904;2023-03-22T10:56:19;98310.41;;;15.07;40.12
44979;BME280;67464;52.438;-1.904;2023-03-22T10:58:45;98297.33;;;13.84;41.57
44979;BME280;67464;52.438;-1.904;2023-03-22T11:01:12;98311.30;;;14.75;42.36
44979;BME280;67464;52.438;-1.904;2023-03-22T11:03:38;98309.00;;;15.84;41.96
44979;BME280;67464;52.438;-1.904;2023-03-22T11:06:06;98311.54;;;14.42;40.54
44979;BME280;67464;52.438;-1.904;2023-03-22T11:08:27;98324.50;;;15.10;39.93
44979;BME280;67464;52.438;-1.904;2023-03-22T11:10:53;98312.66;;;14.98;39.12
44979;BME280;67464;52.438;-1.904;2023-03-22T11:13:19;98302.27;;;16.24;39.74
44979;BME280;67464;52.438;-1.904;2023-03-22T11:15:49;98304.28;;;17.18;37.09
44979;BME280;67464;52.438;-1.904;2023-03-22T11:18:13;98306.03;;;15.69;38.06
44979;BME280;67464;52.438;-1.904;2023-03-22T11:20:34;98304.74;;;15.70;39.80
44979;BME280;67464;52.438;-1.904;2023-03-22T11:23:02;98313.15;;;13.24;43.29
44979;BME280;67464;52.438;-1.904;2023-03-22T11:25:26;98311.51;;;13.50;44.68
44979;BME280;67464;52.438;-1.904;2023-03-22T11:27:52;98300.93;;;14.27;48.31
44979;BME280;67464;52.438;-1.904;2023-03-22T11:30:18;98301.07;;;13.95;43.56
44979;BME280;67464;52.438;-1.904;2023-03-22T11:32:40;98314.88;;;13.08;44.82
44979;BME280;67464;52.438;-1.904;2023-03-22T11:35:12;98306.23;;;14.06;42.74
44979;BME280;67464;52.438;-1.904;2023-03-22T11:37:32;98309.09;;;15.51;43.59
44979;BME280;67464;52.438;-1.904;2023-03-22T11:39:59;98308.82;;;14.92;41.98
44979;BME280;67464;52.438;-1.904;2023-03-22T11:42:22;98306.81;;;13.90;43.59
44979;BME280;67464;52.438;-1.904;2023-03-22T11:44:48;98307.97;;;14.58;45.37
44979;BME280;67464;52.438;-1.904;2023-03-22T11:47:13;98305.94;;;14.33;43.23
44979;BME280;67464;52.438;-1.904;2023-03-22T11:49:45;98311.02;;;11.99;47.21
44979;BME280;67464;52.438;-1.904;2023-03-22T11:52:09;98305.74;;;12.46;50.31
44979;BME280;67464;52.438;-1.904;2023-03-22T11:54:32;98291.67;;;12.69;53.31
44979;BME280;67464;52.438;-1.904;2023-03-22T11:56:58;98300.05;;;12.59;49.06
44979;BME280;67464;52.438;-1.904;2023-03-22T11:59:23;98300.52;;;12.52;51.19
44979;BME280;67464;52.438;-1.904;2023-03-22T12:01:49;98297.74;;;12.56;50.29
44979;BME280;67464;52.438;-1.904;2023-03-22T12:04:14;98295.38;;;12.26;48.32
44979;BME280;67464;52.438;-1.904;2023-03-22T12:06:39;98290.96;;;12.61;46.98
44979;BME280;67464;52.438;-1.904;2023-03-22T12:09:07;98286.64;;;13.06;46.64
44979;BME280;67464;52.438;-1.904;2023-03-22T12:11:31;98286.99;;;12.50;47.11
44979;BME280;67464;52.438;-1.904;2023-03-22T12:13:56;98284.69;;;12.87;47.03
44979;BME280;67464;52.438;-1.904;2023-03-22T12:16:22;98273.29;;;14.22;43.37
44979;BME280;67464;52.438;-1.904;2023-03-22T12:18:48;98276.00;;;14.62;42.53
44979;BME280;67464;52.438;-1.904;2023-03-22T12:21:09;98275.73;;;14.93;41.00
44979;BME280;67464;52.438;-1.904;2023-03-22T12:23:35;98262.87;;;12.85;44.18
44979;BME280;67464;52.438;-1.904;2023-03-22T12:26:04;98262.20;;;13.01;44.98
44979;BME280;67464;52.438;-1.904;2023-03-22T12:28:28;98268.43;;;13.94;42.98
44979;BME280;67464;52.438;-1.904;2023-03-22T12:30:53;98256.79;;;13.81;42.79
44979;BME280;67464;52.438;-1.904;2023-03-22T12:33:19;98255.59;;;13.44;42.58
44979;BME280;67464;52.438;-1.904;2023-03-22T12:35:44;98243.79;;;13.86;41.52
44979;BME280;67464;52.438;-1.904;2023-03-22T12:38:14;98246.45;;;13.22;43.55
44979;BME280;67464;52.438;-1.904;2023-03-22T12:40:36;98240.90;;;13.70;41.69
44979;BME280;67464;52.438;-1.904;2023-03-22T12:43:02;98252.94;;;14.33;40.67
44979;BME280;67464;52.438;-1.904;2023-03-22T12:45:25;98255.87;;;12.34;43.46
44979;BME280;67464;52.438;-1.904;2023-03-22T12:47:50;98260.31;;;13.11;44.14